Isis — OEX5261 — position and weather

sailwx.info

Track history (hours):
 
Tides and Currents Weather Stations Pressure Air Temp Water Temp Dewpoint Dewpoint Depression Visibility Wind Speed Wind Dir Waves Ship Positions

Isis

Last reported at 2018-Feb-16 14:33 UTC. Time now 2018-Feb-22 03:09 UTC.
Position N 18°04' W 063°06'.

Length 14 m.

Type: Sailing vessel. MMSI: 203249200.

Date/timePositionNaut miles runAvg speedWind from/ knotsBaromVisibWave heightAir tempDewpointWater temp
2018-Feb-16 14:33N 18°04' W 063°06'0 0.5
2018-Feb-16 14:22N 18°04' W 063°06'52 4.6
2018-Feb-16 02:57N 17°28' W 062°26'3 6.2
2018-Feb-16 02:29N 17°25' W 062°24'3 6.2
2018-Feb-16 02:01N 17°23' W 062°22'3 5.9
2018-Feb-16 01:30N 17°21' W 062°20'3 5.9
2018-Feb-16 00:59N 17°18' W 062°18'3 6.1
2018-Feb-16 00:30N 17°16' W 062°16'3 5.1
2018-Feb-15 23:51N 17°14' W 062°14'2 5.0
2018-Feb-15 23:30N 17°12' W 062°13'3 6.1
2018-Feb-15 23:00N 17°10' W 062°10'3 6.7
2018-Feb-15 22:30N 17°08' W 062°08'3 5.9
2018-Feb-15 22:00N 17°06' W 062°06'3 6.0
2018-Feb-15 21:27N 17°03' W 062°04'3 5.9
2018-Feb-15 21:00N 17°01' W 062°02'2 4.9
2018-Feb-15 20:30N 16°59' W 062°01'3 5.2
2018-Feb-15 20:00N 16°57' W 061°59'3 5.7
2018-Feb-15 19:30N 16°54' W 061°58'3 5.6
2018-Feb-15 19:00N 16°52' W 061°57'3 5.6
2018-Feb-15 18:30N 16°49' W 061°56'3 5.7
2018-Feb-15 18:00N 16°46' W 061°56'3 5.7
2018-Feb-15 17:30N 16°43' W 061°55'3 5.7
2018-Feb-15 17:00N 16°40' W 061°54'3 5.8
2018-Feb-15 16:30N 16°38' W 061°53'3 6.0
2018-Feb-15 16:00N 16°35' W 061°53'3 5.8
2018-Feb-15 15:30N 16°32' W 061°52'3 5.9
2018-Feb-15 15:00N 16°29' W 061°51'3 6.0
2018-Feb-15 14:30N 16°26' W 061°50'3 6.3
2018-Feb-15 13:59N 16°23' W 061°49'5 6.1
2018-Feb-15 13:12N 16°18' W 061°48'0 0.0
2018-Feb-13 18:49N 16°18' W 061°48'7 4.6
2018-Feb-13 17:16N 16°11' W 061°48'3 5.5
2018-Feb-13 16:38N 16°08' W 061°47'1 4.7
2018-Feb-13 16:28N 16°07' W 061°47'5 4.9
2018-Feb-13 15:25N 16°02' W 061°46'  
Track history (hours):
 
Tides and Currents Weather Stations Pressure Air Temp Water Temp Dewpoint Dewpoint Depression Visibility Wind Speed Wind Dir Waves Ship Positions

Isis

Last reported at 2018-Feb-16 14:33 UTC. Time now 2018-Feb-22 03:09 UTC.
Position N 18°04' W 063°06'.

Length 14 m.

Type: Sailing vessel. MMSI: 203249200.

Date/timePositionNaut miles runAvg speedWind from/ knotsBaromVisibWave heightAir tempDewpointWater temp
2018-Feb-16 14:33N 18°04' W 063°06'0 0.5
2018-Feb-16 14:22N 18°04' W 063°06'52 4.6
2018-Feb-16 02:57N 17°28' W 062°26'3 6.2
2018-Feb-16 02:29N 17°25' W 062°24'3 6.2
2018-Feb-16 02:01N 17°23' W 062°22'3 5.9
2018-Feb-16 01:30N 17°21' W 062°20'3 5.9
2018-Feb-16 00:59N 17°18' W 062°18'3 6.1
2018-Feb-16 00:30N 17°16' W 062°16'3 5.1
2018-Feb-15 23:51N 17°14' W 062°14'2 5.0
2018-Feb-15 23:30N 17°12' W 062°13'3 6.1
2018-Feb-15 23:00N 17°10' W 062°10'3 6.7
2018-Feb-15 22:30N 17°08' W 062°08'3 5.9
2018-Feb-15 22:00N 17°06' W 062°06'3 6.0
2018-Feb-15 21:27N 17°03' W 062°04'3 5.9
2018-Feb-15 21:00N 17°01' W 062°02'2 4.9
2018-Feb-15 20:30N 16°59' W 062°01'3 5.2
2018-Feb-15 20:00N 16°57' W 061°59'3 5.7
2018-Feb-15 19:30N 16°54' W 061°58'3 5.6
2018-Feb-15 19:00N 16°52' W 061°57'3 5.6
2018-Feb-15 18:30N 16°49' W 061°56'3 5.7
2018-Feb-15 18:00N 16°46' W 061°56'3 5.7
2018-Feb-15 17:30N 16°43' W 061°55'3 5.7
2018-Feb-15 17:00N 16°40' W 061°54'3 5.8
2018-Feb-15 16:30N 16°38' W 061°53'3 6.0
2018-Feb-15 16:00N 16°35' W 061°53'3 5.8
2018-Feb-15 15:30N 16°32' W 061°52'3 5.9
2018-Feb-15 15:00N 16°29' W 061°51'3 6.0
2018-Feb-15 14:30N 16°26' W 061°50'3 6.3
2018-Feb-15 13:59N 16°23' W 061°49'5 6.1
2018-Feb-15 13:12N 16°18' W 061°48'0 0.0
2018-Feb-13 18:49N 16°18' W 061°48'7 4.6
2018-Feb-13 17:16N 16°11' W 061°48'3 5.5
2018-Feb-13 16:38N 16°08' W 061°47'1 4.7
2018-Feb-13 16:28N 16°07' W 061°47'5 4.9
2018-Feb-13 15:25N 16°02' W 061°46'  

Dump ship's entire track history